createdAt,value
2018-08-20T00:00:58.745Z,0.90
2018-08-20T00:03:27.405Z,1.40
2018-08-20T00:05:56.354Z,1.90
2018-08-20T00:08:25.605Z,1.17
2018-08-20T00:10:56.638Z,1.07
2018-08-20T00:13:25.641Z,1.80
2018-08-20T00:15:54.735Z,1.10
2018-08-20T00:18:29.041Z,1.37
2018-08-20T00:20:57.566Z,1.13
2018-08-20T00:23:26.312Z,1.03
2018-08-20T00:25:57.993Z,1.00
2018-08-20T00:28:27.013Z,1.40
2018-08-20T00:30:55.473Z,1.33
2018-08-20T00:33:24.126Z,1.50
2018-08-20T00:35:53.265Z,1.40
2018-08-20T00:38:21.737Z,1.50
2018-08-20T00:40:50.240Z,1.17
2018-08-20T00:43:19.018Z,1.60
2018-08-20T00:45:47.472Z,1.23
2018-08-20T00:48:15.938Z,1.20
2018-08-20T00:50:44.753Z,1.33
2018-08-20T00:53:13.292Z,1.43
2018-08-20T00:55:41.745Z,1.40
2018-08-20T00:58:10.317Z,1.50
2018-08-20T01:00:38.750Z,1.40
2018-08-20T01:03:07.597Z,1.37
2018-08-20T01:05:36.253Z,1.70
2018-08-20T01:08:04.808Z,1.70
2018-08-20T01:10:33.307Z,1.70
2018-08-20T01:13:02.089Z,1.60
2018-08-20T01:15:30.552Z,1.90
2018-08-20T01:17:58.980Z,1.60
2018-08-20T01:20:27.609Z,2.13
2018-08-20T01:22:56.069Z,1.80
2018-08-20T01:25:24.580Z,1.80
2018-08-20T01:27:53.093Z,1.57
2018-08-20T01:30:21.609Z,1.50
2018-08-20T01:32:50.123Z,1.70
2018-08-20T01:35:27.007Z,1.73
2018-08-20T01:37:55.529Z,1.90
2018-08-20T01:40:24.779Z,1.73
2018-08-20T01:42:53.912Z,1.67
2018-08-20T01:45:22.389Z,1.70
2018-08-20T01:47:50.829Z,1.63
2018-08-20T01:50:19.693Z,1.87
2018-08-20T01:52:48.465Z,1.80
2018-08-20T01:55:16.960Z,1.90
2018-08-20T01:57:45.630Z,1.70
2018-08-20T02:00:14.128Z,1.83
2018-08-20T02:02:42.697Z,2.00
2018-08-20T02:05:11.769Z,2.00
2018-08-20T02:07:40.315Z,1.90
2018-08-20T02:10:08.823Z,2.03
2018-08-20T02:12:37.412Z,2.07
2018-08-20T02:15:05.952Z,1.90
2018-08-20T02:17:34.413Z,1.60
2018-08-20T02:20:03.273Z,1.77
2018-08-20T02:22:32.053Z,2.07
2018-08-20T02:25:01.107Z,1.83
2018-08-20T02:27:29.777Z,2.43
2018-08-20T02:29:58.462Z,2.00
2018-08-20T02:32:26.905Z,1.70
2018-08-20T02:34:55.407Z,1.77
2018-08-20T02:37:30.895Z,2.70
2018-08-20T02:39:59.749Z,1.90
2018-08-20T02:42:28.417Z,1.63
2018-08-20T02:44:57.450Z,1.73
2018-08-20T02:47:26.025Z,1.70
2018-08-20T02:49:54.489Z,1.50
2018-08-20T02:52:22.981Z,2.00
2018-08-20T02:54:51.499Z,1.87
2018-08-20T02:57:19.935Z,2.00
2018-08-20T02:59:48.442Z,1.57
2018-08-20T03:02:16.953Z,1.97
2018-08-20T03:04:45.397Z,1.73
2018-08-20T03:07:14.726Z,1.67
2018-08-20T03:09:43.532Z,1.70
2018-08-20T03:12:11.974Z,1.77
2018-08-20T03:14:40.957Z,1.80
2018-08-20T03:17:09.593Z,2.50
2018-08-20T03:19:38.053Z,1.87
2018-08-20T03:22:06.868Z,2.40
2018-08-20T03:24:35.562Z,1.80
2018-08-20T03:27:04.057Z,1.80
2018-08-20T03:29:32.538Z,2.10
2018-08-20T03:32:01.296Z,1.70
2018-08-20T03:34:30.458Z,2.03
2018-08-20T03:36:58.980Z,2.27
2018-08-20T03:39:27.669Z,2.10
2018-08-20T03:41:56.181Z,1.57
2018-08-20T03:44:24.673Z,2.17
2018-08-20T03:46:53.665Z,1.70
2018-08-20T03:49:22.238Z,2.13
2018-08-20T03:51:50.722Z,2.27
2018-08-20T03:54:19.771Z,1.80
2018-08-20T03:56:48.192Z,1.67
2018-08-20T03:59:30.128Z,2.00
2018-08-20T04:02:00.057Z,1.87
2018-08-20T04:04:28.963Z,1.97
2018-08-20T04:06:58.264Z,1.87
2018-08-20T04:09:27.257Z,1.60
2018-08-20T04:11:56.017Z,2.17
2018-08-20T04:14:24.474Z,1.87
2018-08-20T04:16:52.961Z,2.13
2018-08-20T04:19:21.687Z,2.90
2018-08-20T04:21:50.555Z,2.00
2018-08-20T04:24:19.371Z,2.13
2018-08-20T04:26:48.385Z,1.90
2018-08-20T04:29:16.906Z,2.03
2018-08-20T04:31:45.425Z,2.47
2018-08-20T04:34:14.290Z,2.03
2018-08-20T04:36:42.897Z,2.40
2018-08-20T04:39:12.104Z,1.80
2018-08-20T04:41:41.068Z,2.00
2018-08-20T04:44:09.771Z,1.60
2018-08-20T04:46:38.280Z,1.73
2018-08-20T04:49:07.411Z,2.20
2018-08-20T04:51:35.958Z,2.30
2018-08-20T04:54:04.412Z,1.67
2018-08-20T04:56:33.273Z,1.70
2018-08-20T04:59:01.825Z,2.30
2018-08-20T05:01:30.280Z,1.87
2018-08-20T05:03:59.383Z,2.17
2018-08-20T05:06:28.009Z,2.03
2018-08-20T05:08:56.453Z,2.20
2018-08-20T05:11:25.297Z,1.97
2018-08-20T05:13:53.777Z,1.97
2018-08-20T05:16:22.216Z,2.10
2018-08-20T05:18:50.777Z,1.90
2018-08-20T05:21:19.407Z,2.10
2018-08-20T05:23:47.845Z,2.17
2018-08-20T05:26:16.810Z,2.20
2018-08-20T05:28:45.459Z,1.97
2018-08-20T05:31:13.918Z,2.50
2018-08-20T05:33:42.845Z,2.03
2018-08-20T05:36:11.641Z,2.47
2018-08-20T05:38:40.933Z,2.30
2018-08-20T05:41:09.927Z,2.03
2018-08-20T05:43:39.017Z,2.00
2018-08-20T05:46:07.494Z,2.13
2018-08-20T05:48:36.501Z,2.43
2018-08-20T05:51:05.473Z,2.00
2018-08-20T05:53:33.964Z,2.30
2018-08-20T05:56:02.561Z,2.17
2018-08-20T05:58:31.273Z,1.97
2018-08-20T06:00:59.818Z,2.30
2018-08-20T06:03:28.619Z,2.20
2018-08-20T06:05:57.081Z,2.20
2018-08-20T06:08:25.544Z,2.40
2018-08-20T06:10:54.685Z,1.87
2018-08-20T06:13:23.313Z,1.60
2018-08-20T06:15:51.766Z,1.87
2018-08-20T06:18:20.717Z,2.03
2018-08-20T06:20:49.190Z,2.10
2018-08-20T06:23:17.626Z,2.37
2018-08-20T06:25:46.474Z,1.85
2018-08-20T06:28:15.753Z,2.33
2018-08-20T06:30:44.189Z,1.80
2018-08-20T06:33:12.833Z,2.20
2018-08-20T06:35:41.613Z,1.75
2018-08-20T06:38:10.816Z,2.10
2018-08-20T06:40:39.517Z,2.10
2018-08-20T06:43:08.207Z,2.02
2018-08-20T06:45:37.033Z,2.20
2018-08-20T06:48:05.886Z,1.60
2018-08-20T06:50:34.559Z,1.95
2018-08-20T06:53:05.845Z,2.08
2018-08-20T06:55:35.409Z,1.90
2018-08-20T06:58:03.907Z,2.30
2018-08-20T07:00:32.969Z,2.00
2018-08-20T07:03:02.029Z,2.67
2018-08-20T07:05:30.590Z,2.08
2018-08-20T07:07:59.054Z,2.10
2018-08-20T07:10:31.892Z,2.52
2018-08-20T07:13:12.035Z,2.00
2018-08-20T07:15:41.409Z,2.10
2018-08-20T07:18:10.520Z,2.30
2018-08-20T07:20:39.337Z,2.47
2018-08-20T07:23:14.501Z,2.15
2018-08-20T07:25:43.074Z,2.05
2018-08-20T07:28:11.607Z,2.33
2018-08-20T07:30:40.365Z,1.80
2018-08-20T07:33:10.256Z,1.90
2018-08-20T07:35:39.646Z,2.05
2018-08-20T07:38:09.861Z,2.02
2018-08-20T07:40:38.353Z,1.75
2018-08-20T07:43:06.849Z,2.10
2018-08-20T07:45:35.557Z,2.60
2018-08-20T07:48:05.139Z,1.82
2018-08-20T07:50:33.609Z,1.70
2018-08-20T07:53:02.565Z,2.40
2018-08-20T07:55:31.160Z,2.50
2018-08-20T07:57:59.797Z,2.05
2018-08-20T08:00:28.533Z,2.47
2018-08-20T08:02:57.244Z,1.95
2018-08-20T08:05:25.824Z,2.20
2018-08-20T08:07:54.697Z,1.82
2018-08-20T08:10:23.165Z,1.80
2018-08-20T08:12:51.681Z,1.75
2018-08-20T08:15:20.633Z,2.08
2018-08-20T08:17:49.469Z,2.05
2018-08-20T08:20:17.953Z,2.55
2018-08-20T08:22:46.985Z,2.00
2018-08-20T08:25:15.470Z,2.67
2018-08-20T08:27:44.001Z,2.27
2018-08-20T08:30:15.727Z,2.87
2018-08-20T08:32:44.326Z,2.22
2018-08-20T08:35:13.814Z,1.92
2018-08-20T08:37:43.724Z,1.95
2018-08-20T08:40:14.399Z,2.25
2018-08-20T08:42:43.033Z,2.42
2018-08-20T08:45:15.051Z,2.42
2018-08-20T08:47:43.982Z,2.10
2018-08-20T08:50:12.798Z,2.15
2018-08-20T08:52:42.049Z,1.87
2018-08-20T08:55:11.162Z,2.47
2018-08-20T08:57:40.705Z,1.65
2018-08-20T09:00:19.680Z,2.30
2018-08-20T09:02:48.321Z,2.33
2018-08-20T09:05:17.506Z,1.60
2018-08-20T09:07:46.101Z,2.00
2018-08-20T09:10:14.562Z,1.77
2018-08-20T09:12:43.194Z,2.40
2018-08-20T09:15:14.557Z,1.98
2018-08-20T09:17:44.265Z,2.37
2018-08-20T09:20:15.238Z,2.35
2018-08-20T09:22:44.897Z,2.02
2018-08-20T09:25:14.278Z,2.00
2018-08-20T09:27:44.167Z,2.27
2018-08-20T09:30:16.017Z,2.27
2018-08-20T09:32:45.473Z,2.35
2018-08-20T09:35:13.993Z,2.40
2018-08-20T09:37:43.161Z,2.42
2018-08-20T09:40:12.389Z,2.00
2018-08-20T09:42:41.598Z,1.82
2018-08-20T09:45:10.617Z,2.40
2018-08-20T09:47:40.698Z,1.65
2018-08-20T09:50:12.969Z,2.02
2018-08-20T09:52:41.629Z,1.98
2018-08-20T09:55:10.509Z,1.95
2018-08-20T09:57:39.722Z,2.30
2018-08-20T10:00:21.637Z,2.37
2018-08-20T10:02:51.285Z,2.15
2018-08-20T10:05:20.275Z,2.00
2018-08-20T10:07:49.337Z,1.95
2018-08-20T10:10:18.165Z,1.92
2018-08-20T10:12:47.176Z,2.00
2018-08-20T10:15:15.952Z,1.87
2018-08-20T10:17:44.890Z,2.10
2018-08-20T10:20:14.577Z,1.62
2018-08-20T10:22:43.697Z,1.90
2018-08-20T10:25:12.519Z,1.67
2018-08-20T10:27:41.246Z,2.02
2018-08-20T10:30:12.110Z,1.85
2018-08-20T10:32:40.946Z,1.57
2018-08-20T10:35:10.262Z,2.05
2018-08-20T10:37:38.836Z,1.90
2018-08-20T10:40:09.323Z,1.70
2018-08-20T10:42:38.605Z,2.15
2018-08-20T10:45:14.849Z,1.75
2018-08-20T10:47:44.886Z,2.95
2018-08-20T10:50:15.045Z,1.72
2018-08-20T10:52:45.426Z,2.05
2018-08-20T10:55:13.975Z,1.55
2018-08-20T10:57:43.562Z,1.80
2018-08-20T11:00:12.769Z,1.50
2018-08-20T11:02:42.036Z,2.00
2018-08-20T11:05:14.675Z,1.67
2018-08-20T11:07:43.253Z,2.35
2018-08-20T11:10:12.093Z,1.87
2018-08-20T11:12:40.698Z,1.50
2018-08-20T11:15:11.227Z,1.62
2018-08-20T11:17:39.954Z,1.60
2018-08-20T11:20:11.571Z,1.85
2018-08-20T11:22:41.353Z,1.50
2018-08-20T11:25:11.347Z,1.57
2018-08-20T11:27:40.355Z,1.98
2018-08-20T11:30:11.513Z,1.75
2018-08-20T11:32:40.646Z,1.47
2018-08-20T11:35:09.781Z,1.50
2018-08-20T11:37:38.349Z,1.37
2018-08-20T11:40:08.240Z,1.50
2018-08-20T11:42:36.685Z,1.40
2018-08-20T11:45:05.685Z,1.45
2018-08-20T11:47:34.210Z,1.35
2018-08-20T11:50:03.538Z,1.50
2018-08-20T11:52:32.453Z,1.60
2018-08-20T11:55:01.065Z,1.60
2018-08-20T11:57:29.544Z,1.52
2018-08-20T11:59:58.439Z,1.32
2018-08-20T12:02:26.963Z,1.47
2018-08-20T12:04:55.405Z,1.25
2018-08-20T12:07:24.519Z,1.30
2018-08-20T12:09:53.038Z,0.90
2018-08-20T12:12:21.485Z,1.30
2018-08-20T12:14:50.223Z,0.93
2018-08-20T12:17:18.787Z,0.93
2018-08-20T12:19:47.546Z,1.22
2018-08-20T12:22:16.615Z,0.90
2018-08-20T12:24:45.507Z,1.20
2018-08-20T12:27:14.558Z,0.80
2018-08-20T12:29:43.348Z,0.80
2018-08-20T12:32:11.846Z,0.90
2018-08-20T12:34:39.693Z,0.88
2018-08-20T12:37:08.718Z,0.93
2018-08-20T12:39:37.413Z,1.30
2018-08-20T12:42:05.897Z,1.20
2018-08-20T12:44:34.867Z,0.82
2018-08-20T12:47:03.397Z,1.17
2018-08-20T12:49:31.976Z,1.10
2018-08-20T12:52:01.114Z,1.07
2018-08-20T12:54:29.825Z,1.17
2018-08-20T12:56:58.566Z,1.07
2018-08-20T12:59:27.188Z,1.22
2018-08-20T13:01:55.665Z,1.20
2018-08-20T13:04:24.110Z,1.15
2018-08-20T13:06:52.677Z,1.20
2018-08-20T13:09:21.753Z,1.30
2018-08-20T13:11:50.191Z,0.82
2018-08-20T13:14:18.982Z,1.00
2018-08-20T13:16:47.523Z,1.37
2018-08-20T13:19:16.010Z,1.12
2018-08-20T13:21:45.046Z,1.35
2018-08-20T13:24:13.557Z,1.85
2018-08-20T13:26:42.306Z,2.55
2018-08-20T13:29:11.349Z,2.17
2018-08-20T13:31:40.015Z,2.20
2018-08-20T13:34:09.030Z,1.27
2018-08-20T13:36:37.799Z,2.00
2018-08-20T13:39:07.863Z,1.60
2018-08-20T13:41:36.431Z,1.60
2018-08-20T13:44:05.397Z,1.70
2018-08-20T13:46:33.901Z,1.80
2018-08-20T13:49:02.430Z,1.95
2018-08-20T13:51:31.116Z,1.60
2018-08-20T13:53:59.637Z,1.85
2018-08-20T13:56:28.096Z,1.62
2018-08-20T13:58:57.180Z,1.80
2018-08-20T14:01:25.646Z,1.65
2018-08-20T14:03:54.621Z,2.12
2018-08-20T14:06:23.526Z,1.85
2018-08-20T14:08:52.023Z,1.50
2018-08-20T14:11:20.473Z,2.02
2018-08-20T14:13:49.274Z,1.70
2018-08-20T14:16:17.786Z,2.20
2018-08-20T14:18:46.249Z,1.92
2018-08-20T14:21:15.988Z,1.98
2018-08-20T14:23:46.472Z,2.02
2018-08-20T14:26:15.015Z,2.30
2018-08-20T14:28:44.241Z,2.15
2018-08-20T14:31:13.161Z,2.08
2018-08-20T14:33:42.587Z,1.80
2018-08-20T14:36:11.742Z,1.90
2018-08-20T14:38:40.310Z,1.82
2018-08-20T14:41:08.750Z,2.37
2018-08-20T14:43:37.531Z,1.70
2018-08-20T14:46:11.658Z,1.67
2018-08-20T14:48:40.701Z,1.90
2018-08-20T14:51:09.162Z,2.08
2018-08-20T14:53:37.902Z,2.20
2018-08-20T14:56:06.749Z,1.70
2018-08-20T14:58:35.204Z,2.12
2018-08-20T15:01:03.703Z,1.80
2018-08-20T15:03:32.607Z,1.80
2018-08-20T15:06:01.070Z,1.70
2018-08-20T15:08:29.724Z,2.10
2018-08-20T15:10:58.252Z,2.12
2018-08-20T15:13:26.682Z,1.82
2018-08-20T15:15:55.158Z,2.42
2018-08-20T15:18:24.114Z,1.98
2018-08-20T15:20:52.571Z,1.65
2018-08-20T15:23:21.069Z,2.17
2018-08-20T15:25:50.061Z,1.92
2018-08-20T15:28:18.555Z,3.10
2018-08-20T15:30:47.225Z,1.95
2018-08-20T15:33:16.753Z,2.67
2018-08-20T15:35:45.297Z,2.40
2018-08-20T15:38:13.769Z,2.10
2018-08-20T15:40:42.530Z,2.25
2018-08-20T15:43:10.972Z,2.22
2018-08-20T15:45:39.772Z,2.98
2018-08-20T15:48:09.143Z,2.40
2018-08-20T15:50:37.582Z,2.35
2018-08-20T15:53:06.219Z,2.30
2018-08-20T15:55:34.902Z,2.15
2018-08-20T15:58:03.412Z,2.33
2018-08-20T16:00:32.885Z,2.35
2018-08-20T16:03:01.659Z,1.95
2018-08-20T16:05:30.141Z,2.20
2018-08-20T16:07:58.661Z,2.47
2018-08-20T16:10:27.234Z,2.27
2018-08-20T16:12:56.220Z,2.08
2018-08-20T16:15:24.726Z,1.85
2018-08-20T16:17:53.465Z,2.83
2018-08-20T16:20:21.930Z,2.67
2018-08-20T16:22:56.968Z,2.15
2018-08-20T16:25:25.413Z,2.35
2018-08-20T16:27:53.925Z,3.33
2018-08-20T16:30:22.682Z,1.90
2018-08-20T16:32:52.193Z,2.87
2018-08-20T16:35:20.791Z,2.40
2018-08-20T16:37:49.683Z,2.52
2018-08-20T16:40:18.170Z,2.55
2018-08-20T16:42:46.653Z,2.50
2018-08-20T16:45:15.493Z,2.80
2018-08-20T16:47:43.917Z,2.77
2018-08-20T16:50:13.485Z,3.00
2018-08-20T16:52:42.394Z,3.65
2018-08-20T16:55:10.917Z,4.37
2018-08-20T16:57:40.015Z,3.42
2018-08-20T17:00:11.213Z,2.42
2018-08-20T17:02:40.585Z,1.98
2018-08-20T17:05:11.420Z,2.00
2018-08-20T17:07:40.461Z,1.57
2018-08-20T17:10:10.830Z,1.70
2018-08-20T17:12:39.797Z,1.27
2018-08-20T17:15:10.593Z,1.50
2018-08-20T17:17:39.604Z,1.32
2018-08-20T17:20:09.588Z,1.65
2018-08-20T17:22:38.038Z,1.70
2018-08-20T17:25:07.389Z,1.40
2018-08-20T17:27:36.226Z,1.35
2018-08-20T17:30:05.569Z,1.40
2018-08-20T17:32:34.094Z,1.45
2018-08-20T17:35:03.318Z,1.40
2018-08-20T17:37:32.092Z,1.00
2018-08-20T17:40:04.714Z,1.42
2018-08-20T17:42:33.857Z,1.10
2018-08-20T17:45:02.933Z,1.37
2018-08-20T17:47:32.222Z,1.00
2018-08-20T17:50:01.418Z,1.33
2018-08-20T17:52:32.362Z,1.07
2018-08-20T17:55:02.947Z,1.30
2018-08-20T17:57:31.601Z,1.03
2018-08-20T18:00:16.290Z,0.97
2018-08-20T18:02:44.950Z,1.10
2018-08-20T18:05:13.430Z,1.00
2018-08-20T18:07:42.264Z,1.00
2018-08-20T18:10:11.017Z,1.33
2018-08-20T18:12:40.205Z,1.20
2018-08-20T18:15:08.709Z,1.03
2018-08-20T18:17:37.622Z,1.13
2018-08-20T18:20:06.155Z,1.20
2018-08-20T18:22:34.639Z,1.40
2018-08-20T18:25:03.253Z,1.10
2018-08-20T18:27:35.900Z,1.13
2018-08-20T18:30:04.740Z,1.40
2018-08-20T18:32:33.209Z,1.30
2018-08-20T18:35:01.913Z,1.20
2018-08-20T18:37:32.385Z,1.30
2018-08-20T18:40:01.050Z,1.63
2018-08-20T18:42:34.837Z,1.10
2018-08-20T18:45:03.476Z,1.30
2018-08-20T18:47:31.937Z,1.20
2018-08-20T18:50:00.460Z,1.37
2018-08-20T18:52:30.397Z,1.20
2018-08-20T18:54:59.651Z,1.70
2018-08-20T18:57:32.445Z,1.47
2018-08-20T19:00:02.254Z,1.30
2018-08-20T19:02:39.322Z,1.30
2018-08-20T19:05:12.580Z,1.73
2018-08-20T19:07:41.521Z,1.40
2018-08-20T19:10:32.877Z,1.50
2018-08-20T19:13:01.457Z,1.17
2018-08-20T19:15:41.192Z,1.83
2018-08-20T19:18:11.783Z,1.70
2018-08-20T19:20:41.712Z,1.30
2018-08-20T19:23:10.681Z,1.20
2018-08-20T19:25:39.242Z,1.30
2018-08-20T19:28:13.905Z,1.37
2018-08-20T19:30:43.151Z,1.30
2018-08-20T19:33:28.493Z,1.40
2018-08-20T19:35:57.601Z,1.40
2018-08-20T19:38:26.121Z,1.10
2018-08-20T19:41:03.690Z,1.30
2018-08-20T19:43:41.317Z,1.30
2018-08-20T19:46:09.825Z,1.80
2018-08-20T19:48:38.352Z,1.50
2018-08-20T19:51:08.954Z,1.30
2018-08-20T19:53:37.474Z,1.40
2018-08-20T19:56:11.281Z,1.40
2018-08-20T19:58:42.803Z,1.50
2018-08-20T20:01:14.920Z,0.93
2018-08-20T20:03:46.185Z,1.80
2018-08-20T20:06:15.444Z,1.47
2018-08-20T20:08:44.157Z,1.70
2018-08-20T20:11:20.230Z,1.27
2018-08-20T20:13:52.661Z,1.40
2018-08-20T20:16:21.401Z,1.20
2018-08-20T20:18:50.362Z,1.40
2018-08-20T20:21:19.258Z,1.20
2018-08-20T20:23:47.818Z,1.93
2018-08-20T20:26:16.693Z,1.23
2018-08-20T20:28:45.326Z,1.33
2018-08-20T20:31:14.009Z,1.30
2018-08-20T20:33:42.486Z,1.30
2018-08-20T20:36:14.232Z,1.50
2018-08-20T20:38:42.906Z,1.20
2018-08-20T20:41:11.770Z,1.10
2018-08-20T20:43:40.487Z,1.30
2018-08-20T20:46:10.194Z,1.20
2018-08-20T20:48:39.050Z,1.60
2018-08-20T20:51:07.826Z,1.03
2018-08-20T20:53:36.388Z,1.20
2018-08-20T20:56:04.895Z,1.27
2018-08-20T20:58:36.433Z,1.27
2018-08-20T21:01:06.389Z,1.60
2018-08-20T21:03:35.213Z,1.27
2018-08-20T21:06:04.511Z,1.27
2018-08-20T21:08:41.345Z,1.27
2018-08-20T21:11:11.705Z,1.47
2018-08-20T21:13:40.520Z,1.13
2018-08-20T21:16:10.599Z,1.17
2018-08-20T21:18:44.987Z,1.20
2018-08-20T21:21:14.190Z,1.30
2018-08-20T21:23:42.752Z,1.37
2018-08-20T21:26:11.720Z,1.20
2018-08-20T21:28:57.602Z,1.30
2018-08-20T21:31:27.408Z,1.30
2018-08-20T21:33:57.491Z,0.90
2018-08-20T21:36:26.112Z,1.23
2018-08-20T21:38:54.625Z,1.17
2018-08-20T21:41:24.353Z,1.20
2018-08-20T21:43:52.983Z,1.20
2018-08-20T21:46:21.558Z,1.10
2018-08-20T21:48:50.574Z,1.03
2018-08-20T21:51:28.872Z,0.97
2018-08-20T21:53:58.044Z,0.87
2018-08-20T21:56:36.382Z,0.80
2018-08-20T21:59:05.253Z,1.10
2018-08-20T22:01:33.746Z,1.07
2018-08-20T22:04:06.400Z,1.10
2018-08-20T22:06:35.329Z,0.90
2018-08-20T22:09:03.882Z,1.00
2018-08-20T22:11:32.397Z,0.90
2018-08-20T22:14:00.967Z,0.80
2018-08-20T22:16:29.769Z,0.97
2018-08-20T22:18:59.409Z,0.90
2018-08-20T22:21:28.341Z,0.80
2018-08-20T22:23:58.752Z,0.90
2018-08-20T22:26:27.401Z,1.03
2018-08-20T22:28:56.239Z,0.80
2018-08-20T22:31:24.785Z,0.93
2018-08-20T22:33:59.037Z,0.77
2018-08-20T22:36:30.916Z,1.10
2018-08-20T22:39:05.700Z,0.80
2018-08-20T22:41:34.685Z,0.77
2018-08-20T22:44:03.306Z,1.00
2018-08-20T22:46:31.745Z,0.97
2018-08-20T22:49:00.885Z,0.73
2018-08-20T22:51:30.338Z,1.00
2018-08-20T22:54:00.458Z,0.90
2018-08-20T22:56:31.650Z,0.97
2018-08-20T22:59:07.461Z,0.90
2018-08-20T23:01:36.072Z,1.10
2018-08-20T23:04:05.050Z,1.00
2018-08-20T23:06:33.513Z,0.90
2018-08-20T23:09:18.313Z,1.10
2018-08-20T23:11:47.205Z,0.70
2018-08-20T23:14:15.693Z,0.80
2018-08-20T23:16:44.261Z,0.67
2018-08-20T23:19:12.974Z,0.70
2018-08-20T23:21:43.033Z,0.83
2018-08-20T23:24:12.481Z,0.80
2018-08-20T23:26:41.117Z,0.83
2018-08-20T23:29:10.005Z,0.60
2018-08-20T23:31:38.969Z,0.70
2018-08-20T23:34:10.781Z,1.00
2018-08-20T23:36:40.419Z,0.60
2018-08-20T23:39:10.798Z,0.70
2018-08-20T23:41:39.584Z,0.80
2018-08-20T23:44:08.186Z,0.70
2018-08-20T23:46:42.103Z,0.70
2018-08-20T23:49:10.658Z,0.90
2018-08-20T23:51:39.157Z,0.93
2018-08-20T23:54:07.798Z,0.77
2018-08-20T23:56:36.250Z,0.70
2018-08-20T23:59:04.713Z,0.87
